sensor_id;sensor_type;location;lat;lon;timestamp;pressure;altitude;pressure_sealevel;temperature;humidity
71559;BME280;59382;43.852;25.952;2024-02-28T00:00:50;101763.19;;;11.27;51.73
71559;BME280;59382;43.852;25.952;2024-02-28T00:03:17;101741.44;;;11.14;51.84
71559;BME280;59382;43.852;25.952;2024-02-28T00:05:42;101764.97;;;11.20;51.95
71559;BME280;59382;43.852;25.952;2024-02-28T00:08:08;101746.81;;;11.14;51.95
71559;BME280;59382;43.852;25.952;2024-02-28T00:10:33;101752.59;;;11.11;52.15
71559;BME280;59382;43.852;25.952;2024-02-28T00:13:02;101755.88;;;11.06;52.17
71559;BME280;59382;43.852;25.952;2024-02-28T00:15:27;101751.22;;;11.00;52.64
71559;BME280;59382;43.852;25.952;2024-02-28T00:17:54;101754.13;;;10.99;52.46
71559;BME280;59382;43.852;25.952;2024-02-28T00:20:23;101758.03;;;10.96;52.80
71559;BME280;59382;43.852;25.952;2024-02-28T00:22:52;101756.00;;;10.84;52.85
71559;BME280;59382;43.852;25.952;2024-02-28T00:25:18;101764.56;;;10.87;52.90
71559;BME280;59382;43.852;25.952;2024-02-28T00:27:43;101766.44;;;10.87;52.83
71559;BME280;59382;43.852;25.952;2024-02-28T00:30:09;101738.88;;;10.77;52.79
71559;BME280;59382;43.852;25.952;2024-02-28T00:32:34;101761.50;;;10.90;53.06
71559;BME280;59382;43.852;25.952;2024-02-28T00:35:00;101761.31;;;10.92;52.61
71559;BME280;59382;43.852;25.952;2024-02-28T00:37:25;101746.03;;;10.84;52.70
71559;BME280;59382;43.852;25.952;2024-02-28T00:39:51;101740.56;;;10.78;52.54
71559;BME280;59382;43.852;25.952;2024-02-28T00:42:17;101754.34;;;10.83;52.84
71559;BME280;59382;43.852;25.952;2024-02-28T00:44:42;101748.28;;;10.81;53.11
71559;BME280;59382;43.852;25.952;2024-02-28T00:47:09;101749.41;;;10.72;53.13
71559;BME280;59382;43.852;25.952;2024-02-28T00:49:34;101753.38;;;10.76;53.02
71559;BME280;59382;43.852;25.952;2024-02-28T00:52:02;101756.75;;;10.78;53.13
71559;BME280;59382;43.852;25.952;2024-02-28T00:54:28;101749.50;;;10.64;52.76
71559;BME280;59382;43.852;25.952;2024-02-28T00:56:53;101756.56;;;10.65;53.10
71559;BME280;59382;43.852;25.952;2024-02-28T00:59:21;101762.72;;;10.59;53.18
71559;BME280;59382;43.852;25.952;2024-02-28T01:01:48;101748.00;;;10.47;53.24
71559;BME280;59382;43.852;25.952;2024-02-28T01:04:14;101757.41;;;10.51;53.49
71559;BME280;59382;43.852;25.952;2024-02-28T01:06:39;101734.22;;;10.42;53.43
71559;BME280;59382;43.852;25.952;2024-02-28T01:09:05;101753.22;;;10.48;53.19
71559;BME280;59382;43.852;25.952;2024-02-28T01:11:30;101748.84;;;10.47;53.09
71559;BME280;59382;43.852;25.952;2024-02-28T01:13:56;101735.34;;;10.33;53.54
71559;BME280;59382;43.852;25.952;2024-02-28T01:16:21;101758.25;;;10.37;53.30
71559;BME280;59382;43.852;25.952;2024-02-28T01:18:47;101749.13;;;10.38;53.44
71559;BME280;59382;43.852;25.952;2024-02-28T01:21:12;101752.84;;;10.37;53.59
71559;BME280;59382;43.852;25.952;2024-02-28T01:23:38;101737.78;;;10.28;53.28
71559;BME280;59382;43.852;25.952;2024-02-28T01:26:03;101752.00;;;10.36;53.52
71559;BME280;59382;43.852;25.952;2024-02-28T01:28:30;101748.19;;;10.31;53.44
71559;BME280;59382;43.852;25.952;2024-02-28T01:30:55;101745.69;;;10.29;53.51
71559;BME280;59382;43.852;25.952;2024-02-28T01:33:21;101735.81;;;10.22;53.88
71559;BME280;59382;43.852;25.952;2024-02-28T01:35:49;101740.91;;;10.17;53.51
71559;BME280;59382;43.852;25.952;2024-02-28T01:38:15;101734.03;;;10.14;53.96
71559;BME280;59382;43.852;25.952;2024-02-28T01:40:45;101753.41;;;10.18;53.85
71559;BME280;59382;43.852;25.952;2024-02-28T01:43:11;101731.91;;;10.01;53.97
71559;BME280;59382;43.852;25.952;2024-02-28T01:45:37;101752.78;;;10.08;53.68
71559;BME280;59382;43.852;25.952;2024-02-28T01:48:09;101757.59;;;9.97;53.60
71559;BME280;59382;43.852;25.952;2024-02-28T01:50:37;101755.97;;;9.88;54.19
71559;BME280;59382;43.852;25.952;2024-02-28T01:53:06;101768.72;;;9.94;53.91
71559;BME280;59382;43.852;25.952;2024-02-28T01:55:37;101754.00;;;9.82;54.14
71559;BME280;59382;43.852;25.952;2024-02-28T01:58:03;101776.34;;;9.91;54.21
71559;BME280;59382;43.852;25.952;2024-02-28T02:00:32;101762.28;;;9.81;54.26
71559;BME280;59382;43.852;25.952;2024-02-28T02:03:01;101783.25;;;9.93;54.18
71559;BME280;59382;43.852;25.952;2024-02-28T02:05:27;101781.91;;;9.89;54.29
71559;BME280;59382;43.852;25.952;2024-02-28T02:07:54;101779.50;;;9.94;54.29
71559;BME280;59382;43.852;25.952;2024-02-28T02:10:23;101775.16;;;9.93;54.40
71559;BME280;59382;43.852;25.952;2024-02-28T02:12:49;101776.44;;;9.97;54.32
71559;BME280;59382;43.852;25.952;2024-02-28T02:15:14;101759.97;;;9.92;54.15
71559;BME280;59382;43.852;25.952;2024-02-28T02:17:40;101771.25;;;9.96;54.32
71559;BME280;59382;43.852;25.952;2024-02-28T02:20:06;101748.63;;;9.82;54.17
71559;BME280;59382;43.852;25.952;2024-02-28T02:22:37;101775.16;;;9.93;54.15
71559;BME280;59382;43.852;25.952;2024-02-28T02:25:06;101788.81;;;9.92;54.19
71559;BME280;59382;43.852;25.952;2024-02-28T02:27:32;101774.47;;;9.91;54.36
71559;BME280;59382;43.852;25.952;2024-02-28T02:29:58;101771.03;;;9.83;54.32
71559;BME280;59382;43.852;25.952;2024-02-28T02:32:23;101784.91;;;9.94;54.17
71559;BME280;59382;43.852;25.952;2024-02-28T02:34:49;101769.50;;;9.80;53.96
71559;BME280;59382;43.852;25.952;2024-02-28T02:37:14;101790.53;;;9.85;54.13
71559;BME280;59382;43.852;25.952;2024-02-28T02:39:40;101774.84;;;9.66;54.43
71559;BME280;59382;43.852;25.952;2024-02-28T02:42:06;101789.84;;;9.68;54.23
71559;BME280;59382;43.852;25.952;2024-02-28T02:44:34;101785.19;;;9.62;54.25
71559;BME280;59382;43.852;25.952;2024-02-28T02:47:00;101797.97;;;9.60;54.54
71559;BME280;59382;43.852;25.952;2024-02-28T02:49:25;101803.72;;;9.57;54.82
71559;BME280;59382;43.852;25.952;2024-02-28T02:51:51;101783.56;;;9.53;54.94
71559;BME280;59382;43.852;25.952;2024-02-28T02:54:16;101809.59;;;9.61;54.33
71559;BME280;59382;43.852;25.952;2024-02-28T02:56:42;101812.84;;;9.56;54.54
71559;BME280;59382;43.852;25.952;2024-02-28T02:59:10;101813.19;;;9.53;54.61
71559;BME280;59382;43.852;25.952;2024-02-28T03:01:37;101790.19;;;9.43;54.76
71559;BME280;59382;43.852;25.952;2024-02-28T03:04:03;101796.75;;;9.40;54.60
71559;BME280;59382;43.852;25.952;2024-02-28T03:06:29;101822.28;;;9.52;54.56
71559;BME280;59382;43.852;25.952;2024-02-28T03:08:54;101795.06;;;9.39;54.40
71559;BME280;59382;43.852;25.952;2024-02-28T03:11:20;101819.66;;;9.44;54.64
71559;BME280;59382;43.852;25.952;2024-02-28T03:13:45;101821.34;;;9.37;54.75
71559;BME280;59382;43.852;25.952;2024-02-28T03:16:14;101824.03;;;9.37;54.47
71559;BME280;59382;43.852;25.952;2024-02-28T03:18:39;101818.03;;;9.27;54.63
71559;BME280;59382;43.852;25.952;2024-02-28T03:21:08;101810.97;;;9.26;54.94
71559;BME280;59382;43.852;25.952;2024-02-28T03:23:36;101810.66;;;9.21;54.92
71559;BME280;59382;43.852;25.952;2024-02-28T03:26:02;101832.84;;;9.31;54.92
71559;BME280;59382;43.852;25.952;2024-02-28T03:28:30;101830.16;;;9.31;54.97
71559;BME280;59382;43.852;25.952;2024-02-28T03:30:56;101822.72;;;9.33;54.65
71559;BME280;59382;43.852;25.952;2024-02-28T03:33:25;101838.84;;;9.41;54.71
71559;BME280;59382;43.852;25.952;2024-02-28T03:35:50;101836.00;;;9.35;54.50
71559;BME280;59382;43.852;25.952;2024-02-28T03:38:19;101832.38;;;9.20;54.33
71559;BME280;59382;43.852;25.952;2024-02-28T03:40:50;101856.16;;;9.16;54.73
71559;BME280;59382;43.852;25.952;2024-02-28T03:43:18;101856.50;;;9.05;54.70
71559;BME280;59382;43.852;25.952;2024-02-28T03:45:44;101864.94;;;9.02;54.79
71559;BME280;59382;43.852;25.952;2024-02-28T03:48:10;101836.75;;;8.82;54.67
71559;BME280;59382;43.852;25.952;2024-02-28T03:50:41;101834.59;;;8.70;54.86
71559;BME280;59382;43.852;25.952;2024-02-28T03:53:07;101856.47;;;8.75;55.11
71559;BME280;59382;43.852;25.952;2024-02-28T03:55:32;101862.34;;;8.70;55.50
71559;BME280;59382;43.852;25.952;2024-02-28T03:57:58;101837.50;;;8.52;55.33
71559;BME280;59382;43.852;25.952;2024-02-28T04:00:24;101837.16;;;8.47;55.46
71559;BME280;59382;43.852;25.952;2024-02-28T04:02:51;101875.97;;;8.53;55.80
71559;BME280;59382;43.852;25.952;2024-02-28T04:05:25;101863.72;;;8.50;55.74
71559;BME280;59382;43.852;25.952;2024-02-28T04:07:51;101876.19;;;8.43;55.73
71559;BME280;59382;43.852;25.952;2024-02-28T04:10:16;101843.06;;;8.27;55.96
71559;BME280;59382;43.852;25.952;2024-02-28T04:12:43;101862.38;;;8.38;56.00
71559;BME280;59382;43.852;25.952;2024-02-28T04:15:13;101849.63;;;8.24;56.00
71559;BME280;59382;43.852;25.952;2024-02-28T04:17:42;101851.09;;;8.19;56.04
71559;BME280;59382;43.852;25.952;2024-02-28T04:20:11;101854.28;;;8.14;56.28
71559;BME280;59382;43.852;25.952;2024-02-28T04:22:37;101867.59;;;8.24;56.52
71559;BME280;59382;43.852;25.952;2024-02-28T04:25:06;101851.59;;;8.14;56.54
71559;BME280;59382;43.852;25.952;2024-02-28T04:27:36;101884.91;;;8.29;56.37
71559;BME280;59382;43.852;25.952;2024-02-28T04:30:02;101883.56;;;8.25;56.17
71559;BME280;59382;43.852;25.952;2024-02-28T04:32:27;101871.59;;;8.12;56.52
71559;BME280;59382;43.852;25.952;2024-02-28T04:34:53;101856.81;;;7.99;56.54
71559;BME280;59382;43.852;25.952;2024-02-28T04:37:18;101883.53;;;8.09;56.68
71559;BME280;59382;43.852;25.952;2024-02-28T04:39:47;101883.03;;;8.05;56.74
71559;BME280;59382;43.852;25.952;2024-02-28T04:42:13;101889.25;;;8.06;56.92
71559;BME280;59382;43.852;25.952;2024-02-28T04:44:39;101860.31;;;7.92;56.98
71559;BME280;59382;43.852;25.952;2024-02-28T04:47:04;101868.75;;;7.97;56.84
71559;BME280;59382;43.852;25.952;2024-02-28T04:49:30;101874.78;;;7.91;56.91
71559;BME280;59382;43.852;25.952;2024-02-28T04:51:58;101886.03;;;7.94;57.08
71559;BME280;59382;43.852;25.952;2024-02-28T04:54:24;101869.38;;;7.83;57.31
71559;BME280;59382;43.852;25.952;2024-02-28T04:56:50;101905.03;;;8.01;56.86
71559;BME280;59382;43.852;25.952;2024-02-28T04:59:16;101901.34;;;7.94;56.90
71559;BME280;59382;43.852;25.952;2024-02-28T05:01:45;101908.72;;;7.84;57.08
71559;BME280;59382;43.852;25.952;2024-02-28T05:04:11;101898.91;;;7.67;57.17
71559;BME280;59382;43.852;25.952;2024-02-28T05:06:36;101912.72;;;7.72;56.95
71559;BME280;59382;43.852;25.952;2024-02-28T05:09:02;101907.13;;;7.65;57.29
71559;BME280;59382;43.852;25.952;2024-02-28T05:11:28;101915.03;;;7.67;57.52
71559;BME280;59382;43.852;25.952;2024-02-28T05:13:53;101923.44;;;7.72;57.40
71559;BME280;59382;43.852;25.952;2024-02-28T05:16:19;101911.34;;;7.68;57.35
71559;BME280;59382;43.852;25.952;2024-02-28T05:18:44;101924.28;;;7.72;57.59
71559;BME280;59382;43.852;25.952;2024-02-28T05:21:11;101924.44;;;7.71;57.49
71559;BME280;59382;43.852;25.952;2024-02-28T05:23:40;101921.44;;;7.74;57.52
71559;BME280;59382;43.852;25.952;2024-02-28T05:26:05;101923.44;;;7.72;57.49
71559;BME280;59382;43.852;25.952;2024-02-28T05:28:35;101908.31;;;7.63;57.76
71559;BME280;59382;43.852;25.952;2024-02-28T05:31:24;101931.53;;;7.80;57.91
71559;BME280;59382;43.852;25.952;2024-02-28T05:33:51;101936.56;;;7.83;57.90
71559;BME280;59382;43.852;25.952;2024-02-28T05:36:23;101905.13;;;7.67;57.92
71559;BME280;59382;43.852;25.952;2024-02-28T05:38:53;101924.16;;;7.82;57.59
71559;BME280;59382;43.852;25.952;2024-02-28T05:41:22;101931.03;;;7.84;57.39
71559;BME280;59382;43.852;25.952;2024-02-28T05:43:49;101931.53;;;7.80;57.50
71559;BME280;59382;43.852;25.952;2024-02-28T05:46:17;101933.88;;;7.75;57.93
71559;BME280;59382;43.852;25.952;2024-02-28T05:48:49;101934.53;;;7.69;57.74
71559;BME280;59382;43.852;25.952;2024-02-28T05:51:14;101940.22;;;7.66;57.97
71559;BME280;59382;43.852;25.952;2024-02-28T05:53:42;101939.16;;;7.59;58.17
71559;BME280;59382;43.852;25.952;2024-02-28T05:56:09;101948.63;;;7.63;58.05
71559;BME280;59382;43.852;25.952;2024-02-28T05:58:45;101929.06;;;7.53;58.21
71559;BME280;59382;43.852;25.952;2024-02-28T06:01:17;101943.56;;;7.60;58.28
71559;BME280;59382;43.852;25.952;2024-02-28T06:03:48;101946.56;;;7.57;58.51
71559;BME280;59382;43.852;25.952;2024-02-28T06:06:15;101948.25;;;7.58;58.58
71559;BME280;59382;43.852;25.952;2024-02-28T06:08:42;101943.53;;;7.52;58.85
71559;BME280;59382;43.852;25.952;2024-02-28T06:11:07;101935.44;;;7.44;58.80
71559;BME280;59382;43.852;25.952;2024-02-28T06:13:33;101963.03;;;7.62;58.92
71559;BME280;59382;43.852;25.952;2024-02-28T06:15:59;101949.91;;;7.59;58.89
71559;BME280;59382;43.852;25.952;2024-02-28T06:18:26;101963.75;;;7.72;58.84
71559;BME280;59382;43.852;25.952;2024-02-28T06:20:58;101964.41;;;7.74;58.98
71559;BME280;59382;43.852;25.952;2024-02-28T06:23:24;101969.78;;;7.74;58.39
71559;BME280;59382;43.852;25.952;2024-02-28T06:25:53;101978.16;;;7.71;59.05
71559;BME280;59382;43.852;25.952;2024-02-28T06:28:18;101959.69;;;7.68;59.04
71559;BME280;59382;43.852;25.952;2024-02-28T06:30:44;101953.28;;;7.61;59.41
71559;BME280;59382;43.852;25.952;2024-02-28T06:33:13;101972.84;;;7.79;59.26
71559;BME280;59382;43.852;25.952;2024-02-28T06:35:40;101976.56;;;7.86;59.02
71559;BME280;59382;43.852;25.952;2024-02-28T06:38:08;101956.72;;;7.79;59.13
71559;BME280;59382;43.852;25.952;2024-02-28T06:40:34;101981.97;;;7.94;58.87
71559;BME280;59382;43.852;25.952;2024-02-28T06:43:02;101956.38;;;7.82;59.30
71559;BME280;59382;43.852;25.952;2024-02-28T06:45:28;101983.13;;;7.91;59.29
71559;BME280;59382;43.852;25.952;2024-02-28T06:47:53;101976.25;;;7.97;59.50
71559;BME280;59382;43.852;25.952;2024-02-28T06:50:22;101968.53;;;8.02;59.40
71559;BME280;59382;43.852;25.952;2024-02-28T06:52:53;101964.53;;;8.06;59.46
71559;BME280;59382;43.852;25.952;2024-02-28T06:55:21;101957.81;;;8.18;59.41
71559;BME280;59382;43.852;25.952;2024-02-28T06:57:50;101974.34;;;8.31;59.39
71559;BME280;59382;43.852;25.952;2024-02-28T07:00:18;101972.84;;;8.45;59.01
71559;BME280;59382;43.852;25.952;2024-02-28T07:02:44;102000.91;;;8.66;58.98
71559;BME280;59382;43.852;25.952;2024-02-28T07:05:10;101996.72;;;8.72;58.89
71559;BME280;59382;43.852;25.952;2024-02-28T07:07:36;101985.81;;;8.73;58.70
71559;BME280;59382;43.852;25.952;2024-02-28T07:10:10;101988.81;;;8.70;58.68
71559;BME280;59382;43.852;25.952;2024-02-28T07:12:39;101995.56;;;8.82;58.53
71559;BME280;59382;43.852;25.952;2024-02-28T07:15:08;101966.94;;;8.65;58.60
71559;BME280;59382;43.852;25.952;2024-02-28T07:17:38;101991.19;;;8.73;58.38
71559;BME280;59382;43.852;25.952;2024-02-28T07:20:09;101993.19;;;8.71;58.53
71559;BME280;59382;43.852;25.952;2024-02-28T07:22:42;101990.16;;;8.58;58.59
71559;BME280;59382;43.852;25.952;2024-02-28T07:25:11;102009.34;;;8.71;58.65
71559;BME280;59382;43.852;25.952;2024-02-28T07:27:36;101988.81;;;8.62;58.75
71559;BME280;59382;43.852;25.952;2024-02-28T07:30:08;101990.50;;;8.71;58.40
71559;BME280;59382;43.852;25.952;2024-02-28T07:32:43;101989.13;;;8.75;58.41
71559;BME280;59382;43.852;25.952;2024-02-28T07:35:12;101989.66;;;8.79;58.66
71559;BME280;59382;43.852;25.952;2024-02-28T07:37:43;101998.91;;;8.84;58.28
71559;BME280;59382;43.852;25.952;2024-02-28T07:40:18;101992.53;;;8.77;58.14
71559;BME280;59382;43.852;25.952;2024-02-28T07:42:47;101990.84;;;8.76;58.08
71559;BME280;59382;43.852;25.952;2024-02-28T07:45:15;101982.75;;;8.68;58.19
71559;BME280;59382;43.852;25.952;2024-02-28T07:47:41;101985.81;;;8.73;58.23
71559;BME280;59382;43.852;25.952;2024-02-28T07:50:07;101990.50;;;8.79;58.48
71559;BME280;59382;43.852;25.952;2024-02-28T07:52:32;101991.16;;;8.81;58.40
71559;BME280;59382;43.852;25.952;2024-02-28T07:55:02;101993.03;;;8.81;58.46
71559;BME280;59382;43.852;25.952;2024-02-28T07:57:28;101970.00;;;8.70;58.15
71559;BME280;59382;43.852;25.952;2024-02-28T07:59:53;101938.03;;;8.51;58.67
71559;BME280;59382;43.852;25.952;2024-02-28T08:02:22;101995.72;;;8.73;58.31
71559;BME280;59382;43.852;25.952;2024-02-28T08:04:51;101980.75;;;8.62;58.43
71559;BME280;59382;43.852;25.952;2024-02-28T08:07:19;101975.69;;;8.59;58.39
71559;BME280;59382;43.852;25.952;2024-02-28T08:09:46;101969.28;;;8.60;58.78
71559;BME280;59382;43.852;25.952;2024-02-28T08:12:23;101968.63;;;8.66;58.65
71559;BME280;59382;43.852;25.952;2024-02-28T08:14:48;101982.75;;;8.84;58.88
71559;BME280;59382;43.852;25.952;2024-02-28T08:17:14;101972.66;;;8.78;58.60
71559;BME280;59382;43.852;25.952;2024-02-28T08:19:41;101963.41;;;8.73;58.62
71559;BME280;59382;43.852;25.952;2024-02-28T08:22:07;101958.38;;;8.70;58.52
71559;BME280;59382;43.852;25.952;2024-02-28T08:24:32;101989.13;;;8.91;58.49
71559;BME280;59382;43.852;25.952;2024-02-28T08:26:58;101990.78;;;9.00;58.60
71559;BME280;59382;43.852;25.952;2024-02-28T08:29:23;101972.97;;;8.99;58.64
71559;BME280;59382;43.852;25.952;2024-02-28T08:31:52;101977.84;;;9.12;58.41
71559;BME280;59382;43.852;25.952;2024-02-28T08:34:18;101997.16;;;9.31;58.35
71559;BME280;59382;43.852;25.952;2024-02-28T08:36:43;101970.56;;;9.28;58.22
71559;BME280;59382;43.852;25.952;2024-02-28T08:39:09;101977.28;;;9.32;58.16
71559;BME280;59382;43.852;25.952;2024-02-28T08:41:37;101972.25;;;9.29;57.82
71559;BME280;59382;43.852;25.952;2024-02-28T08:44:04;101970.22;;;9.31;58.13
71559;BME280;59382;43.852;25.952;2024-02-28T08:46:31;101982.97;;;9.45;58.09
71559;BME280;59382;43.852;25.952;2024-02-28T08:48:57;101990.03;;;9.46;58.10
71559;BME280;59382;43.852;25.952;2024-02-28T08:51:22;101999.13;;;9.53;58.30
71559;BME280;59382;43.852;25.952;2024-02-28T08:53:48;101993.56;;;9.55;58.21
71559;BME280;59382;43.852;25.952;2024-02-28T08:56:13;101992.34;;;9.57;58.24
71559;BME280;59382;43.852;25.952;2024-02-28T08:58:39;101993.19;;;9.58;58.31
71559;BME280;59382;43.852;25.952;2024-02-28T09:01:05;101996.41;;;9.53;58.29
71559;BME280;59382;43.852;25.952;2024-02-28T09:03:33;101991.66;;;9.55;58.42
71559;BME280;59382;43.852;25.952;2024-02-28T09:05:59;101980.59;;;9.50;58.58
71559;BME280;59382;43.852;25.952;2024-02-28T09:08:25;101981.56;;;9.57;58.52
71559;BME280;59382;43.852;25.952;2024-02-28T09:10:53;101996.00;;;9.72;58.61
71559;BME280;59382;43.852;25.952;2024-02-28T09:13:18;101992.91;;;9.83;58.76
71559;BME280;59382;43.852;25.952;2024-02-28T09:15:48;101974.88;;;9.84;58.14
71559;BME280;59382;43.852;25.952;2024-02-28T09:18:19;101986.41;;;10.00;58.42
71559;BME280;59382;43.852;25.952;2024-02-28T09:20:44;101974.69;;;9.93;58.12
71559;BME280;59382;43.852;25.952;2024-02-28T09:23:12;101965.19;;;9.97;58.10
71559;BME280;59382;43.852;25.952;2024-02-28T09:25:44;101975.47;;;10.02;58.52
71559;BME280;59382;43.852;25.952;2024-02-28T09:28:09;101986.72;;;10.14;58.16
71559;BME280;59382;43.852;25.952;2024-02-28T09:30:38;101993.13;;;10.13;58.67
71559;BME280;59382;43.852;25.952;2024-02-28T09:33:04;102003.72;;;10.22;58.59
71559;BME280;59382;43.852;25.952;2024-02-28T09:35:29;102006.41;;;10.22;58.60
71559;BME280;59382;43.852;25.952;2024-02-28T09:37:55;102013.28;;;10.25;58.45
71559;BME280;59382;43.852;25.952;2024-02-28T09:40:20;101991.41;;;10.20;58.47
71559;BME280;59382;43.852;25.952;2024-02-28T09:42:53;102011.88;;;10.37;58.56
71559;BME280;59382;43.852;25.952;2024-02-28T09:45:23;101995.31;;;10.40;58.35
71559;BME280;59382;43.852;25.952;2024-02-28T09:47:50;102007.47;;;10.58;58.49
71559;BME280;59382;43.852;25.952;2024-02-28T09:50:15;102009.09;;;10.67;58.04
71559;BME280;59382;43.852;25.952;2024-02-28T09:52:45;101995.44;;;10.69;57.94
71559;BME280;59382;43.852;25.952;2024-02-28T09:55:10;101991.44;;;10.79;58.06
71559;BME280;59382;43.852;25.952;2024-02-28T09:57:36;101997.44;;;10.89;58.00
71559;BME280;59382;43.852;25.952;2024-02-28T10:00:03;101998.03;;;10.99;58.08
71559;BME280;59382;43.852;25.952;2024-02-28T10:02:30;101995.16;;;11.01;57.59
71559;BME280;59382;43.852;25.952;2024-02-28T10:04:56;101992.34;;;11.09;57.90
71559;BME280;59382;43.852;25.952;2024-02-28T10:07:28;101986.22;;;11.15;57.66
71559;BME280;59382;43.852;25.952;2024-02-28T10:09:54;101964.22;;;11.03;57.91
71559;BME280;59382;43.852;25.952;2024-02-28T10:12:20;101978.22;;;11.07;57.90
71559;BME280;59382;43.852;25.952;2024-02-28T10:14:48;101986.31;;;11.07;57.80
71559;BME280;59382;43.852;25.952;2024-02-28T10:17:14;101971.13;;;11.06;58.13
71559;BME280;59382;43.852;25.952;2024-02-28T10:19:39;101962.09;;;11.13;58.16
71559;BME280;59382;43.852;25.952;2024-02-28T10:22:07;101963.50;;;11.24;58.40
71559;BME280;59382;43.852;25.952;2024-02-28T10:24:33;101940.03;;;11.10;57.93
71559;BME280;59382;43.852;25.952;2024-02-28T10:27:03;101952.81;;;11.30;57.77
71559;BME280;59382;43.852;25.952;2024-02-28T10:29:32;101962.13;;;11.42;57.75
71559;BME280;59382;43.852;25.952;2024-02-28T10:32:01;101943.94;;;11.36;58.05
71559;BME280;59382;43.852;25.952;2024-02-28T10:34:32;101944.59;;;11.53;58.08
71559;BME280;59382;43.852;25.952;2024-02-28T10:37:01;101951.09;;;11.58;57.94
71559;BME280;59382;43.852;25.952;2024-02-28T10:39:26;101947.38;;;11.59;57.92
71559;BME280;59382;43.852;25.952;2024-02-28T10:42:05;101940.78;;;11.62;57.77
71559;BME280;59382;43.852;25.952;2024-02-28T10:44:34;101926.22;;;11.48;58.08
71559;BME280;59382;43.852;25.952;2024-02-28T10:47:01;101941.88;;;11.53;58.08
71559;BME280;59382;43.852;25.952;2024-02-28T10:49:27;101933.97;;;11.51;57.94
71559;BME280;59382;43.852;25.952;2024-02-28T10:51:59;101929.75;;;11.49;58.27
71559;BME280;59382;43.852;25.952;2024-02-28T10:54:25;101906.31;;;11.35;58.33
71559;BME280;59382;43.852;25.952;2024-02-28T10:56:54;101919.69;;;11.43;58.29
71559;BME280;59382;43.852;25.952;2024-02-28T10:59:21;101917.84;;;11.43;58.61
71559;BME280;59382;43.852;25.952;2024-02-28T11:01:48;101922.69;;;11.48;58.52
71559;BME280;59382;43.852;25.952;2024-02-28T11:04:16;101914.84;;;11.53;58.65
71559;BME280;59382;43.852;25.952;2024-02-28T11:06:54;101912.41;;;11.58;58.52
71559;BME280;59382;43.852;25.952;2024-02-28T11:09:24;101914.09;;;11.59;58.31
71559;BME280;59382;43.852;25.952;2024-02-28T11:11:51;101901.22;;;11.61;58.99
71559;BME280;59382;43.852;25.952;2024-02-28T11:14:17;101883.91;;;11.55;59.02
71559;BME280;59382;43.852;25.952;2024-02-28T11:16:47;101897.97;;;11.65;58.86
71559;BME280;59382;43.852;25.952;2024-02-28T11:19:20;101877.56;;;11.63;58.99
71559;BME280;59382;43.852;25.952;2024-02-28T11:21:53;101885.56;;;11.71;58.85
71559;BME280;59382;43.852;25.952;2024-02-28T11:24:33;101879.75;;;11.74;58.82
71559;BME280;59382;43.852;25.952;2024-02-28T11:26:59;101878.94;;;11.73;58.81
71559;BME280;59382;43.852;25.952;2024-02-28T11:29:26;101890.28;;;11.83;58.98
71559;BME280;59382;43.852;25.952;2024-02-28T11:31:52;101887.00;;;11.88;59.08
71559;BME280;59382;43.852;25.952;2024-02-28T11:34:19;101881.59;;;11.88;58.93
71559;BME280;59382;43.852;25.952;2024-02-28T11:36:50;101879.56;;;11.90;58.85
71559;BME280;59382;43.852;25.952;2024-02-28T11:39:16;101879.16;;;11.93;58.92
71559;BME280;59382;43.852;25.952;2024-02-28T11:41:42;101876.72;;;11.98;58.99
71559;BME280;59382;43.852;25.952;2024-02-28T11:44:12;101859.69;;;12.04;58.81
71559;BME280;59382;43.852;25.952;2024-02-28T11:46:42;101858.94;;;12.10;58.79
71559;BME280;59382;43.852;25.952;2024-02-28T11:49:08;101856.50;;;12.15;58.75
71559;BME280;59382;43.852;25.952;2024-02-28T11:51:34;101838.56;;;12.14;58.79
71559;BME280;59382;43.852;25.952;2024-02-28T11:54:01;101850.31;;;12.21;58.58
71559;BME280;59382;43.852;25.952;2024-02-28T11:56:27;101851.59;;;12.25;58.51
71559;BME280;59382;43.852;25.952;2024-02-28T11:58:53;101850.16;;;12.29;58.66
71559;BME280;59382;43.852;25.952;2024-02-28T12:01:42;101844.22;;;12.40;58.51
71559;BME280;59382;43.852;25.952;2024-02-28T12:04:09;101812.97;;;12.38;58.43
71559;BME280;59382;43.852;25.952;2024-02-28T12:06:36;101819.47;;;12.43;58.41
71559;BME280;59382;43.852;25.952;2024-02-28T12:09:11;101821.06;;;12.59;58.09
71559;BME280;59382;43.852;25.952;2024-02-28T12:11:37;101832.31;;;12.62;58.03
71559;BME280;59382;43.852;25.952;2024-02-28T12:14:07;101828.16;;;12.66;58.27
71559;BME280;59382;43.852;25.952;2024-02-28T12:16:37;101834.88;;;12.70;57.89
71559;BME280;59382;43.852;25.952;2024-02-28T12:19:09;101818.13;;;12.60;58.19
71559;BME280;59382;43.852;25.952;2024-02-28T12:21:36;101841.94;;;12.71;58.09
71559;BME280;59382;43.852;25.952;2024-02-28T12:24:02;101808.13;;;12.61;58.30
71559;BME280;59382;43.852;25.952;2024-02-28T12:26:27;101807.72;;;12.64;58.17
71559;BME280;59382;43.852;25.952;2024-02-28T12:28:53;101817.44;;;12.79;58.14
71559;BME280;59382;43.852;25.952;2024-02-28T12:31:18;101799.88;;;12.75;58.07
71559;BME280;59382;43.852;25.952;2024-02-28T12:33:45;101817.91;;;12.89;58.29
71559;BME280;59382;43.852;25.952;2024-02-28T12:36:11;101809.19;;;12.94;58.25
71559;BME280;59382;43.852;25.952;2024-02-28T12:38:37;101808.56;;;12.98;58.36
71559;BME280;59382;43.852;25.952;2024-02-28T12:41:02;101810.91;;;13.01;57.78
71559;BME280;59382;43.852;25.952;2024-02-28T12:43:29;101793.00;;;13.07;57.92
71559;BME280;59382;43.852;25.952;2024-02-28T12:45:56;101792.19;;;13.06;57.92